Time;durP1;ratioP1;P1;durP2;ratioP2;P2;SDS_P1;SDS_P2;PMS_P1;PMS_P2;Temp;Humidity;BMP_temperature;BMP_pressure;BME280_temperature;BME280_humidity;BME280_pressure;Samples;Min_cycle;Max_cycle;Signal;HPM_P1;HPM_P2
2023/12/07 00:02:04;;;;;;;10.17;7.07;;;5.80;99.90;;;;;;5092548;28;20032;-76
2023/12/07 00:04:30;;;;;;;9.30;6.37;;;5.80;99.90;;;;;;5092658;28;20062;-76
2023/12/07 00:06:56;;;;;;;7.10;5.27;;;5.80;99.90;;;;;;5074373;28;20028;-76
2023/12/07 00:09:22;;;;;;;7.50;5.30;;;5.70;99.90;;;;;;5092663;28;20031;-76
2023/12/07 00:11:47;;;;;;;7.53;4.83;;;5.70;99.90;;;;;;5092323;28;20044;-76
2023/12/07 00:14:13;;;;;;;5.53;4.37;;;5.70;99.90;;;;;;5092196;28;20040;-76
2023/12/07 00:16:39;;;;;;;6.23;4.80;;;5.70;99.90;;;;;;5091079;28;20039;-74
2023/12/07 00:19:05;;;;;;;6.37;4.53;;;5.70;99.90;;;;;;5092378;28;20042;-74
2023/12/07 00:21:30;;;;;;;7.60;4.67;;;5.70;99.90;;;;;;5092651;28;20069;-75
2023/12/07 00:23:56;;;;;;;7.10;5.20;;;5.70;99.90;;;;;;5092572;28;20034;-75
2023/12/07 00:26:22;;;;;;;7.83;6.00;;;5.80;99.90;;;;;;5092227;28;20028;-74
2023/12/07 00:28:48;;;;;;;9.90;6.33;;;5.70;99.90;;;;;;5091992;28;20040;-75
2023/12/07 00:31:13;;;;;;;7.73;5.67;;;5.80;99.90;;;;;;5092273;28;20044;-76
2023/12/07 00:33:39;;;;;;;7.30;5.37;;;5.80;99.90;;;;;;5074704;28;20032;-76
2023/12/07 00:36:05;;;;;;;11.23;6.37;;;5.70;99.90;;;;;;5092122;28;20040;-75
2023/12/07 00:38:32;;;;;;;10.27;6.33;;;5.70;99.90;;;;;;5075887;28;20430;-76
2023/12/07 00:40:58;;;;;;;10.13;6.63;;;5.70;99.90;;;;;;5096258;28;20040;-75
2023/12/07 00:43:24;;;;;;;10.97;6.63;;;5.70;99.90;;;;;;5096282;28;20191;-76
2023/12/07 00:45:49;;;;;;;8.43;6.03;;;5.70;99.90;;;;;;5096236;28;20040;-75
2023/12/07 00:48:15;;;;;;;12.43;7.53;;;5.70;99.90;;;;;;5096013;28;20032;-76
2023/12/07 00:50:41;;;;;;;20.03;9.93;;;5.70;99.90;;;;;;5095861;28;20093;-75
2023/12/07 00:53:07;;;;;;;16.90;9.93;;;5.70;99.90;;;;;;5096055;28;20044;-74
2023/12/07 00:55:33;;;;;;;12.57;8.30;;;5.60;99.90;;;;;;5095866;28;20031;-76
2023/12/07 00:58:01;;;;;;;10.67;7.77;;;5.60;99.90;;;;;;5096069;28;20411;-75
2023/12/07 01:00:27;;;;;;;12.47;8.27;;;5.60;99.90;;;;;;5096678;28;20705;-75
2023/12/07 01:02:53;;;;;;;14.37;9.50;;;5.60;99.90;;;;;;5099510;28;20032;-75
2023/12/07 01:05:19;;;;;;;20.93;12.23;;;5.60;99.90;;;;;;5109396;28;20051;-76
2023/12/07 01:07:48;;;;;;;17.47;11.17;;;5.60;99.90;;;;;;5096183;28;20052;-76
2023/12/07 01:10:14;;;;;;;17.57;11.77;;;5.60;99.90;;;;;;5092859;28;20043;-76
2023/12/07 01:12:40;;;;;;;21.13;13.13;;;5.60;99.90;;;;;;5096075;28;20430;-75
2023/12/07 01:15:07;;;;;;;26.07;14.17;;;5.60;99.90;;;;;;5077488;28;20040;-75
2023/12/07 01:17:33;;;;;;;23.63;13.73;;;5.60;99.90;;;;;;5096035;28;20032;-74
2023/12/07 01:19:59;;;;;;;19.83;13.87;;;5.50;99.90;;;;;;5095846;28;20107;-75
2023/12/07 01:22:25;;;;;;;21.20;13.07;;;5.50;99.90;;;;;;5095651;28;20480;-76
2023/12/07 01:24:51;;;;;;;27.73;15.03;;;5.50;99.90;;;;;;5095490;28;20036;-75
2023/12/07 01:27:18;;;;;;;21.70;14.47;;;5.50;99.90;;;;;;5095699;28;20040;-75
2023/12/07 01:29:44;;;;;;;19.70;13.53;;;5.50;99.90;;;;;;5095730;28;20036;-75
2023/12/07 01:32:10;;;;;;;24.03;14.70;;;5.40;99.90;;;;;;5069245;28;20043;-75
2023/12/07 01:34:39;;;;;;;25.80;15.27;;;5.40;99.90;;;;;;5095344;28;20395;-75
2023/12/07 01:37:05;;;;;;;23.30;14.10;;;5.40;99.90;;;;;;5095225;28;20132;-75
2023/12/07 01:39:31;;;;;;;19.53;14.23;;;5.40;99.90;;;;;;5076967;28;20039;-76
2023/12/07 01:41:56;;;;;;;21.83;13.23;;;5.40;99.90;;;;;;5095309;28;20040;-76
2023/12/07 01:44:23;;;;;;;18.37;12.40;;;5.40;99.90;;;;;;5095070;28;20067;-76
2023/12/07 01:46:48;;;;;;;18.60;11.90;;;5.40;99.90;;;;;;5094934;28;20055;-75
2023/12/07 01:49:14;;;;;;;23.33;11.50;;;5.40;99.90;;;;;;5094754;28;20472;-76
2023/12/07 01:51:40;;;;;;;16.57;11.03;;;5.40;99.90;;;;;;5094363;28;20086;-76
2023/12/07 01:54:06;;;;;;;15.80;11.20;;;5.40;99.90;;;;;;5094807;28;20036;-75
2023/12/07 01:56:32;;;;;;;14.73;10.53;;;5.30;99.90;;;;;;5094546;28;20028;-76
2023/12/07 01:58:57;;;;;;;12.87;9.47;;;5.40;99.90;;;;;;5092453;28;20063;-75
2023/12/07 02:01:23;;;;;;;17.33;9.73;;;5.40;99.90;;;;;;5091889;28;20035;-75
2023/12/07 02:03:49;;;;;;;14.53;10.30;;;5.40;99.90;;;;;;5092148;28;20473;-75
2023/12/07 02:06:15;;;;;;;13.80;9.47;;;5.40;99.90;;;;;;5094365;28;20123;-74
2023/12/07 02:08:42;;;;;;;16.57;10.10;;;5.40;99.90;;;;;;5093965;28;20036;-75
2023/12/07 02:11:10;;;;;;;14.40;9.87;;;5.40;99.90;;;;;;5094234;28;20507;-75
2023/12/07 02:13:40;;;;;;;15.00;9.47;;;5.40;99.90;;;;;;5093891;28;20040;-75
2023/12/07 02:16:17;;;;;;;11.93;8.37;;;5.40;99.90;;;;;;5075546;28;20064;-75
2023/12/07 02:19:19;;;;;;;12.00;8.40;;;5.40;99.90;;;;;;5093971;28;20032;-75
2023/12/07 02:21:58;;;;;;;13.30;8.27;;;5.40;99.90;;;;;;5094061;28;20046;-74
2023/12/07 02:24:30;;;;;;;12.80;8.27;;;5.40;99.90;;;;;;5094067;28;20129;-74
2023/12/07 02:26:56;;;;;;;13.40;9.23;;;5.40;99.90;;;;;;5094225;28;20093;-74
2023/12/07 02:29:22;;;;;;;12.27;8.23;;;5.40;99.90;;;;;;5093749;28;20032;-76
2023/12/07 02:31:47;;;;;;;13.60;9.07;;;5.40;99.90;;;;;;5094071;28;20044;-74
2023/12/07 02:34:13;;;;;;;14.47;8.73;;;5.40;99.90;;;;;;5094618;28;20036;-75
2023/12/07 02:36:41;;;;;;;12.93;8.50;;;5.40;99.90;;;;;;5076255;28;20036;-75
2023/12/07 02:39:09;;;;;;;14.90;9.87;;;5.40;99.90;;;;;;5094328;28;20069;-75
2023/12/07 02:41:36;;;;;;;12.67;8.87;;;5.40;99.90;;;;;;5094312;28;20517;-74
2023/12/07 02:44:03;;;;;;;14.17;9.50;;;5.40;99.90;;;;;;5093629;28;20074;-75
2023/12/07 02:46:29;;;;;;;12.83;8.70;;;5.50;99.90;;;;;;5090614;28;20441;-76
2023/12/07 02:48:58;;;;;;;13.60;8.73;;;5.40;99.90;;;;;;5083428;28;20028;-75
2023/12/07 02:51:24;;;;;;;14.57;9.23;;;5.40;99.90;;;;;;5093905;28;20040;-74
2023/12/07 02:53:50;;;;;;;16.37;10.20;;;5.40;99.90;;;;;;5094259;28;20028;-75
2023/12/07 02:56:16;;;;;;;16.83;10.20;;;5.40;99.90;;;;;;5093882;28;20383;-75
2023/12/07 02:58:42;;;;;;;13.97;9.47;;;5.40;99.90;;;;;;5103975;28;20012;-74
2023/12/07 03:01:17;;;;;;;13.03;8.70;;;5.40;99.90;;;;;;5102795;28;20352;-75
2023/12/07 03:03:46;;;;;;;14.53;8.73;;;5.40;99.90;;;;;;5094012;28;20063;-75
2023/12/07 03:06:12;;;;;;;12.33;8.50;;;5.40;99.90;;;;;;5093257;28;20039;-76
2023/12/07 03:08:39;;;;;;;13.37;9.17;;;5.40;99.90;;;;;;5093300;28;20502;-76
2023/12/07 03:11:05;;;;;;;14.57;8.50;;;5.40;99.90;;;;;;5093096;28;20066;-75
2023/12/07 03:13:31;;;;;;;11.53;7.83;;;5.40;99.90;;;;;;5059270;28;20387;-75
2023/12/07 03:15:57;;;;;;;10.90;7.90;;;5.40;99.90;;;;;;5092072;28;20043;-76
2023/12/07 03:18:24;;;;;;;13.10;7.60;;;5.40;99.90;;;;;;5093092;28;20036;-75
2023/12/07 03:20:50;;;;;;;10.60;7.27;;;5.40;99.90;;;;;;5093292;28;20400;-75
2023/12/07 03:23:16;;;;;;;12.53;6.93;;;5.40;99.90;;;;;;5093103;28;20044;-75
2023/12/07 03:25:42;;;;;;;16.30;6.97;;;5.40;99.90;;;;;;5074884;28;20101;-73
2023/12/07 03:28:08;;;;;;;12.83;6.80;;;5.40;99.90;;;;;;5093473;28;20024;-75
2023/12/07 03:30:33;;;;;;;12.77;7.53;;;5.40;99.90;;;;;;5092887;28;20028;-75
2023/12/07 03:32:59;;;;;;;10.43;6.13;;;5.40;99.90;;;;;;5092815;28;20035;-75
2023/12/07 03:35:25;;;;;;;10.63;6.57;;;5.40;99.90;;;;;;5074825;28;20039;-75
2023/12/07 03:37:51;;;;;;;12.87;7.00;;;5.40;99.90;;;;;;5092841;28;20042;-75
2023/12/07 03:40:17;;;;;;;10.57;6.73;;;5.40;99.90;;;;;;5092559;28;20035;-75
2023/12/07 03:42:43;;;;;;;9.80;7.03;;;5.40;99.90;;;;;;5092963;28;20047;-76
2023/12/07 03:45:09;;;;;;;9.77;6.67;;;5.40;99.90;;;;;;5092695;28;20483;-75
2023/12/07 03:47:34;;;;;;;11.60;6.40;;;5.30;99.90;;;;;;5075219;28;20488;-76
2023/12/07 03:50:00;;;;;;;9.60;6.27;;;5.30;99.90;;;;;;5093008;28;20041;-75
2023/12/07 03:52:26;;;;;;;10.53;7.20;;;5.30;99.90;;;;;;5092799;28;20063;-75
2023/12/07 03:54:52;;;;;;;9.77;6.30;;;5.30;99.90;;;;;;5092528;28;20085;-75
2023/12/07 03:57:17;;;;;;;10.47;6.67;;;5.30;99.90;;;;;;5092320;28;20093;-75
2023/12/07 03:59:43;;;;;;;9.73;7.17;;;5.20;99.90;;;;;;5074419;28;20072;-75
2023/12/07 04:02:09;;;;;;;13.40;6.83;;;5.30;99.90;;;;;;5092785;28;20036;-75
2023/12/07 04:04:35;;;;;;;10.97;6.93;;;5.30;99.90;;;;;;5092513;28;20032;-75
2023/12/07 04:07:00;;;;;;;12.73;6.70;;;5.20;99.90;;;;;;5092409;28;20115;-75
2023/12/07 04:09:26;;;;;;;8.33;6.17;;;5.20;99.90;;;;;;5092282;28;20085;-75
2023/12/07 04:11:52;;;;;;;11.93;7.13;;;5.30;99.90;;;;;;5092364;28;20131;-75
2023/12/07 04:14:18;;;;;;;12.30;7.90;;;5.20;99.90;;;;;;5095035;28;20051;-75
2023/12/07 04:16:44;;;;;;;12.73;7.50;;;5.30;99.90;;;;;;5097290;28;20039;-76
2023/12/07 04:19:09;;;;;;;11.07;7.67;;;5.20;99.90;;;;;;5097340;28;20472;-75
2023/12/07 04:21:36;;;;;;;10.83;7.40;;;5.30;99.90;;;;;;5097374;28;20044;-75
2023/12/07 04:40:27;;;;;;;10.40;6.57;;;5.30;99.90;;;;;;5867875;22;20041;-70
2023/12/07 04:42:53;;;;;;;9.20;6.93;;;5.30;99.90;;;;;;5061179;23;20140;-69
2023/12/07 04:45:18;;;;;;;9.77;7.50;;;5.30;99.90;;;;;;5055741;28;20476;-69
2023/12/07 04:47:45;;;;;;;12.13;7.63;;;5.30;99.90;;;;;;5056075;28;20032;-70
2023/12/07 04:50:10;;;;;;;14.43;7.57;;;5.30;99.90;;;;;;5047759;28;20401;-70
2023/12/07 04:52:36;;;;;;;11.37;7.73;;;5.30;99.90;;;;;;5055778;28;20048;-71
2023/12/07 04:55:02;;;;;;;9.50;7.27;;;5.30;99.90;;;;;;5055984;28;20044;-71
2023/12/07 04:57:28;;;;;;;10.13;8.10;;;5.30;99.90;;;;;;5055795;28;20440;-71
2023/12/07 04:59:53;;;;;;;9.93;6.70;;;5.30;99.90;;;;;;5055899;28;20384;-68
2023/12/07 05:02:19;;;;;;;10.33;7.40;;;5.30;99.90;;;;;;5055377;28;20404;-71
2023/12/07 05:04:45;;;;;;;8.57;6.73;;;5.30;99.90;;;;;;5055791;28;20064;-61
2023/12/07 05:07:14;;;;;;;9.47;6.87;;;5.30;99.90;;;;;;5054209;28;20450;-71
2023/12/07 05:09:40;;;;;;;8.17;6.03;;;5.30;99.90;;;;;;5055283;28;20487;-70
2023/12/07 05:12:06;;;;;;;9.30;6.03;;;5.30;99.90;;;;;;5054875;28;20547;-71
2023/12/07 05:14:32;;;;;;;10.77;6.67;;;5.30;99.90;;;;;;5070571;28;20414;-70
2023/12/07 05:16:58;;;;;;;7.77;5.40;;;5.30;99.90;;;;;;5055702;28;20033;-62
2023/12/07 05:19:25;;;;;;;6.43;4.33;;;5.30;99.90;;;;;;5055572;28;20037;-60
2023/12/07 05:21:51;;;;;;;7.10;4.73;;;5.30;99.90;;;;;;5054201;28;20151;-64
2023/12/07 05:24:17;;;;;;;8.80;5.93;;;5.30;99.90;;;;;;5054707;28;20178;-62
2023/12/07 05:26:45;;;;;;;8.57;5.70;;;5.30;99.90;;;;;;5054638;28;20396;-63
2023/12/07 05:29:12;;;;;;;6.63;5.00;;;5.30;99.90;;;;;;5055357;28;20033;-71
2023/12/07 05:31:38;;;;;;;11.63;6.50;;;5.30;99.90;;;;;;5055190;28;20063;-71
2023/12/07 05:34:03;;;;;;;10.33;7.00;;;5.20;99.90;;;;;;5055466;28;20036;-70
2023/12/07 05:36:29;;;;;;;9.47;6.30;;;5.20;99.90;;;;;;5054508;28;20033;-71
2023/12/07 05:38:55;;;;;;;9.47;5.83;;;5.20;99.90;;;;;;5053688;28;20094;-71
2023/12/07 05:41:21;;;;;;;7.63;5.50;;;5.20;99.90;;;;;;5054871;28;20378;-71
2023/12/07 05:43:47;;;;;;;8.63;5.37;;;5.20;99.90;;;;;;5054682;28;20095;-71
2023/12/07 05:46:12;;;;;;;7.90;5.30;;;5.10;99.90;;;;;;5054391;28;20104;-71
2023/12/07 05:48:38;;;;;;;7.87;5.50;;;5.10;99.90;;;;;;5054647;28;20044;-70
2023/12/07 05:51:04;;;;;;;9.13;5.00;;;5.10;99.90;;;;;;5054754;28;20040;-70
2023/12/07 05:53:32;;;;;;;10.90;5.23;;;5.10;99.90;;;;;;5054758;28;20029;-71
2023/12/07 05:55:58;;;;;;;11.17;5.57;;;5.00;99.90;;;;;;5054626;28;20033;-70
2023/12/07 05:58:24;;;;;;;8.33;5.63;;;5.00;99.90;;;;;;5054726;28;20033;-70
2023/12/07 06:00:50;;;;;;;15.00;6.07;;;5.00;99.90;;;;;;5055146;28;20044;-70
2023/12/07 06:03:16;;;;;;;10.77;6.13;;;5.00;99.90;;;;;;5055193;28;20046;-71
2023/12/07 06:05:43;;;;;;;16.10;7.70;;;5.00;99.90;;;;;;5054833;28;20083;-70
2023/12/07 06:08:09;;;;;;;12.20;7.50;;;5.00;99.90;;;;;;5054731;28;20040;-71
2023/12/07 06:10:35;;;;;;;12.23;7.77;;;4.90;99.90;;;;;;5054500;28;20396;-71
2023/12/07 06:13:01;;;;;;;13.60;8.50;;;4.90;99.90;;;;;;5054232;28;20087;-71
2023/12/07 06:15:27;;;;;;;12.57;7.20;;;4.90;99.90;;;;;;5054186;28;20102;-71
2023/12/07 06:17:54;;;;;;;11.10;6.97;;;4.90;99.90;;;;;;5054671;28;20489;-60
2023/12/07 06:20:20;;;;;;;12.87;8.13;;;4.90;99.90;;;;;;5054400;28;20037;-60
2023/12/07 06:22:46;;;;;;;24.13;9.30;;;4.90;99.90;;;;;;5054307;28;20032;-61
2023/12/07 06:25:12;;;;;;;12.17;7.80;;;4.80;99.90;;;;;;5054507;28;20056;-62
2023/12/07 06:27:38;;;;;;;12.53;7.43;;;4.80;99.90;;;;;;5053947;28;20086;-62
2023/12/07 06:30:08;;;;;;;12.47;8.10;;;4.80;99.90;;;;;;5054059;28;20520;-61
2023/12/07 06:32:34;;;;;;;14.83;8.23;;;4.80;99.90;;;;;;5053642;28;20098;-60
2023/12/07 06:35:00;;;;;;;17.53;8.13;;;4.80;99.90;;;;;;5054234;28;20033;-61
2023/12/07 06:37:26;;;;;;;12.87;7.87;;;4.70;99.90;;;;;;5053449;28;20041;-62
2023/12/07 06:39:52;;;;;;;10.83;7.50;;;4.70;99.90;;;;;;5053777;28;20056;-60
2023/12/07 06:42:18;;;;;;;13.10;7.90;;;4.70;99.90;;;;;;5053006;28;20048;-61
2023/12/07 06:44:47;;;;;;;12.07;7.20;;;4.70;99.90;;;;;;5053542;28;20037;-61
2023/12/07 06:47:12;;;;;;;10.33;6.80;;;4.70;99.90;;;;;;5053513;28;20036;-60
2023/12/07 06:49:38;;;;;;;11.50;7.63;;;4.70;99.90;;;;;;5053332;28;20029;-61
2023/12/07 06:52:04;;;;;;;14.53;7.20;;;4.60;99.90;;;;;;5053306;28;20393;-62
2023/12/07 06:54:30;;;;;;;14.83;7.80;;;4.70;99.90;;;;;;5051742;28;20116;-61
2023/12/07 06:56:56;;;;;;;10.23;6.97;;;4.70;99.90;;;;;;5053080;28;20028;-63
2023/12/07 06:59:21;;;;;;;13.27;7.00;;;4.60;99.90;;;;;;5053002;28;20553;-61
2023/12/07 07:01:47;;;;;;;13.33;6.90;;;4.60;99.90;;;;;;5051734;28;20033;-62
2023/12/07 07:04:13;;;;;;;12.83;7.13;;;4.60;99.90;;;;;;5053402;28;20120;-61
2023/12/07 07:06:41;;;;;;;14.47;7.27;;;4.50;99.90;;;;;;5053276;28;20029;-61
2023/12/07 07:09:06;;;;;;;15.27;7.37;;;4.50;99.90;;;;;;5052704;28;20384;-63
2023/12/07 07:11:32;;;;;;;11.13;7.40;;;4.50;99.90;;;;;;5052615;28;20103;-61
2023/12/07 07:13:57;;;;;;;15.10;7.53;;;4.50;99.90;;;;;;5052552;28;20477;-61
2023/12/07 07:16:23;;;;;;;15.07;7.77;;;4.50;99.90;;;;;;5052978;28;20083;-62
2023/12/07 07:18:49;;;;;;;14.93;7.37;;;4.50;99.90;;;;;;5053050;28;20072;-62
2023/12/07 07:21:15;;;;;;;15.63;7.73;;;4.50;99.90;;;;;;5053011;28;20415;-61
2023/12/07 07:23:40;;;;;;;15.97;10.13;;;4.50;99.90;;;;;;5052525;28;20025;-63
2023/12/07 07:26:06;;;;;;;18.43;10.00;;;4.50;99.90;;;;;;5052877;28;20380;-62
2023/12/07 07:28:32;;;;;;;17.83;9.73;;;4.50;99.90;;;;;;5052812;28;20033;-62
2023/12/07 07:30:57;;;;;;;18.67;9.50;;;4.60;99.90;;;;;;5052501;28;20037;-63
2023/12/07 07:33:23;;;;;;;16.10;10.23;;;4.60;99.90;;;;;;5052330;28;20033;-60
2023/12/07 07:35:49;;;;;;;20.23;10.30;;;4.60;99.90;;;;;;5052733;28;20033;-67
2023/12/07 07:38:15;;;;;;;19.40;9.10;;;4.70;99.90;;;;;;5052555;28;20033;-63
2023/12/07 07:40:41;;;;;;;22.23;9.33;;;4.70;99.90;;;;;;5052607;28;20073;-62
2023/12/07 07:43:07;;;;;;;14.73;9.30;;;4.80;99.90;;;;;;5052282;28;20396;-64
2023/12/07 07:45:33;;;;;;;17.57;9.07;;;4.80;99.90;;;;;;5052040;28;20047;-62
2023/12/07 07:47:59;;;;;;;17.50;8.90;;;4.90;99.90;;;;;;5051435;28;20060;-64
2023/12/07 07:50:24;;;;;;;36.53;10.57;;;4.90;99.90;;;;;;5052354;28;20120;-64
2023/12/07 07:52:50;;;;;;;37.13;11.97;;;5.00;99.90;;;;;;5052579;28;20056;-62
2023/12/07 07:55:15;;;;;;;28.60;10.27;;;5.00;99.90;;;;;;5052136;28;20489;-66
2023/12/07 07:57:42;;;;;;;22.67;11.20;;;5.10;99.90;;;;;;5052438;28;20087;-62
2023/12/07 08:00:09;;;;;;;28.17;11.67;;;5.10;99.90;;;;;;5052425;28;20397;-65
2023/12/07 08:02:36;;;;;;;26.17;9.40;;;5.20;99.90;;;;;;5065424;28;20025;-64
2023/12/07 08:05:02;;;;;;;14.60;8.13;;;5.20;99.90;;;;;;5051735;28;20033;-62
2023/12/07 08:07:27;;;;;;;18.57;7.70;;;5.30;99.90;;;;;;5051441;28;20032;-69
2023/12/07 08:09:53;;;;;;;16.40;7.10;;;5.30;99.90;;;;;;5051641;28;20094;-65
2023/12/07 08:12:19;;;;;;;13.93;7.90;;;5.40;99.90;;;;;;5051273;28;20128;-71
2023/12/07 08:14:45;;;;;;;18.17;7.30;;;5.40;99.90;;;;;;5051918;28;20064;-71
2023/12/07 08:17:12;;;;;;;13.13;6.63;;;5.50;99.90;;;;;;5051938;28;20033;-71
2023/12/07 08:19:40;;;;;;;17.47;7.50;;;5.60;99.90;;;;;;5052335;28;20393;-73
2023/12/07 08:22:06;;;;;;;12.80;6.17;;;5.70;99.90;;;;;;5051344;28;20056;-71
2023/12/07 08:24:32;;;;;;;8.70;6.07;;;5.70;99.90;;;;;;5052060;28;20068;-66
2023/12/07 08:26:57;;;;;;;13.73;5.97;;;5.70;99.90;;;;;;5051862;28;20036;-72
2023/12/07 08:29:23;;;;;;;11.17;4.87;;;5.80;99.90;;;;;;5051738;28;20111;-69
2023/12/07 08:31:48;;;;;;;9.83;5.20;;;5.80;99.90;;;;;;5051523;28;20045;-70
2023/12/07 08:34:14;;;;;;;15.17;5.10;;;5.90;99.90;;;;;;5051528;28;20037;-71
2023/12/07 08:36:40;;;;;;;11.67;5.03;;;5.90;99.90;;;;;;5051201;28;20473;-71
2023/12/07 08:39:09;;;;;;;9.37;5.17;;;6.00;99.90;;;;;;5050651;28;20090;-71
2023/12/07 08:41:36;;;;;;;31.03;22.00;;;6.00;99.90;;;;;;5050954;28;20045;-64
2023/12/07 08:44:02;;;;;;;18.50;12.23;;;6.00;99.90;;;;;;5051156;28;20492;-64
2023/12/07 08:46:28;;;;;;;12.97;7.13;;;6.10;99.90;;;;;;5050983;28;20029;-67
2023/12/07 08:48:53;;;;;;;11.83;6.83;;;6.10;99.90;;;;;;5050605;28;20041;-63
2023/12/07 08:51:19;;;;;;;14.20;6.63;;;6.20;99.90;;;;;;5050890;28;20162;-62
2023/12/07 08:53:46;;;;;;;9.33;5.23;;;6.20;99.90;;;;;;5051685;28;20040;-64
2023/12/07 08:56:12;;;;;;;7.80;4.93;;;6.30;99.90;;;;;;5051568;28;20045;-62
2023/12/07 08:58:38;;;;;;;9.13;5.37;;;6.30;99.90;;;;;;5051598;28;20067;-61
2023/12/07 09:01:05;;;;;;;7.70;5.07;;;6.40;99.90;;;;;;5054992;28;20407;-62
2023/12/07 09:03:31;;;;;;;10.07;5.33;;;6.40;99.90;;;;;;5054462;28;20060;-63
2023/12/07 09:06:02;;;;;;;10.67;4.83;;;6.50;99.90;;;;;;5055237;28;20033;-62
2023/12/07 09:08:28;;;;;;;9.23;5.50;;;6.50;99.90;;;;;;5055474;28;20025;-63
2023/12/07 09:10:53;;;;;;;14.90;5.20;;;6.50;99.90;;;;;;5054896;28;20048;-63
2023/12/07 09:13:19;;;;;;;10.27;5.37;;;6.60;99.90;;;;;;5054772;28;20033;-62
2023/12/07 09:15:44;;;;;;;9.63;5.33;;;6.70;99.80;;;;;;5054849;28;20060;-63
2023/12/07 09:18:13;;;;;;;8.23;4.73;;;6.70;99.60;;;;;;5054989;28;20037;-63
2023/12/07 09:20:47;;;;;;;8.40;4.70;;;6.70;99.50;;;;;;5054837;28;20029;-63
2023/12/07 09:23:16;;;;;;;6.27;4.30;;;6.80;99.40;;;;;;5047040;28;20040;-62
2023/12/07 09:25:43;;;;;;;7.63;4.83;;;6.80;99.30;;;;;;5054758;28;20033;-63
2023/12/07 09:28:08;;;;;;;9.07;4.13;;;6.90;99.30;;;;;;5054539;28;20033;-66
2023/12/07 09:30:35;;;;;;;7.07;4.10;;;6.90;99.20;;;;;;5054736;28;20060;-62
2023/12/07 09:33:04;;;;;;;10.80;4.43;;;7.00;99.00;;;;;;5054605;28;20044;-62
2023/12/07 09:35:30;;;;;;;6.37;3.80;;;7.00;98.80;;;;;;5063422;28;20120;-63
2023/12/07 09:37:55;;;;;;;5.60;4.17;;;7.10;98.60;;;;;;5034686;28;20095;-62
2023/12/07 09:40:23;;;;;;;5.30;3.60;;;7.10;98.60;;;;;;5034459;28;20033;-62
2023/12/07 09:42:49;;;;;;;8.60;4.17;;;7.20;98.50;;;;;;5043189;28;20052;-62
2023/12/07 09:45:18;;;;;;;6.33;3.80;;;7.20;98.40;;;;;;5054469;28;20041;-62
2023/12/07 09:47:47;;;;;;;8.03;4.97;;;7.20;98.30;;;;;;5054667;28;20108;-64
2023/12/07 09:50:17;;;;;;;6.20;4.10;;;7.30;98.30;;;;;;5054733;28;20039;-63
2023/12/07 09:52:43;;;;;;;6.10;3.43;;;7.40;98.10;;;;;;5054321;28;20087;-63
2023/12/07 09:55:09;;;;;;;7.63;3.80;;;7.40;97.80;;;;;;5054794;28;20423;-64
2023/12/07 09:57:37;;;;;;;6.73;3.93;;;7.50;97.70;;;;;;5054522;28;20044;-67
2023/12/07 10:00:04;;;;;;;6.10;3.80;;;7.50;97.40;;;;;;5054305;28;20037;-67
2023/12/07 10:02:31;;;;;;;7.07;3.83;;;7.60;97.40;;;;;;5054542;28;20186;-63
2023/12/07 10:05:07;;;;;;;5.53;3.23;;;7.60;97.30;;;;;;5054503;28;20087;-62
2023/12/07 10:07:36;;;;;;;4.97;3.50;;;7.70;97.30;;;;;;5054261;28;20068;-64
2023/12/07 10:10:03;;;;;;;6.07;3.47;;;7.80;97.30;;;;;;5054527;28;20496;-63
2023/12/07 10:12:29;;;;;;;5.17;3.10;;;7.80;97.10;;;;;;5053001;28;20045;-64
2023/12/07 10:14:55;;;;;;;6.53;4.17;;;7.90;97.10;;;;;;5054334;28;20482;-62
2023/12/07 10:17:20;;;;;;;9.60;6.93;;;7.90;97.00;;;;;;5054437;28;20042;-67
2023/12/07 10:20:08;;;;;;;15.23;10.13;;;8.00;96.80;;;;;;5054332;28;20391;-62
2023/12/07 10:22:35;;;;;;;152.43;116.77;;;8.00;96.60;;;;;;5054069;28;20040;-65
2023/12/07 10:25:00;;;;;;;37.73;28.33;;;8.10;96.30;;;;;;5054835;28;20036;-64
2023/12/07 10:27:28;;;;;;;17.63;13.50;;;8.20;96.30;;;;;;5054031;28;20108;-66
2023/12/07 10:29:55;;;;;;;8.77;5.23;;;8.30;96.10;;;;;;5053766;28;20041;-65
2023/12/07 10:32:23;;;;;;;6.00;3.20;;;8.30;95.90;;;;;;5053550;28;20081;-64
2023/12/07 10:34:58;;;;;;;13.17;5.47;;;8.40;95.50;;;;;;5053936;28;20505;-64
2023/12/07 10:37:24;;;;;;;4.93;2.90;;;8.50;95.10;;;;;;5053485;28;20087;-64
2023/12/07 10:39:50;;;;;;;3.67;2.23;;;8.50;94.90;;;;;;5053974;28;20036;-62
2023/12/07 10:42:17;;;;;;;3.27;1.80;;;8.60;94.60;;;;;;5053751;28;20045;-63
2023/12/07 10:44:45;;;;;;;2.77;1.93;;;8.70;94.50;;;;;;5053906;28;20032;-66
2023/12/07 10:47:13;;;;;;;4.13;1.80;;;8.80;94.00;;;;;;5053816;28;20025;-65
2023/12/07 10:49:44;;;;;;;3.27;1.80;;;8.90;93.20;;;;;;5053566;28;20029;-72
2023/12/07 10:52:14;;;;;;;2.83;1.50;;;8.90;92.40;;;;;;5053434;28;20040;-72
2023/12/07 10:54:56;;;;;;;2.40;1.50;;;9.00;92.20;;;;;;5053611;28;20037;-72
2023/12/07 10:57:23;;;;;;;2.17;1.60;;;9.10;91.80;;;;;;5053526;28;20094;-72
2023/12/07 10:59:52;;;;;;;2.60;1.60;;;9.20;91.70;;;;;;5053550;28;20033;-72
2023/12/07 11:02:21;;;;;;;2.97;1.70;;;9.30;91.50;;;;;;5053325;28;20085;-72
2023/12/07 11:04:47;;;;;;;3.50;1.60;;;9.30;90.80;;;;;;5053475;28;20041;-72
2023/12/07 11:07:22;;;;;;;2.53;1.40;;;9.40;90.70;;;;;;5052045;28;20048;-70
2023/12/07 11:09:57;;;;;;;1.63;1.20;;;9.40;90.60;;;;;;5053185;28;20454;-72
2023/12/07 11:12:47;;;;;;;1.93;1.23;;;9.50;90.30;;;;;;5053167;28;20059;-70
2023/12/07 11:15:14;;;;;;;2.67;1.17;;;9.60;89.70;;;;;;5053231;28;20095;-71
2023/12/07 11:17:53;;;;;;;1.63;1.00;;;9.60;89.20;;;;;;5052901;28;20120;-72
2023/12/07 11:20:20;;;;;;;2.30;0.93;;;9.70;87.60;;;;;;5052927;28;20021;-72
2023/12/07 11:22:48;;;;;;;2.00;1.30;;;9.70;86.80;;;;;;5052946;28;20551;-72
2023/12/07 11:25:15;;;;;;;2.40;1.30;;;9.70;86.80;;;;;;5052967;28;20099;-71
2023/12/07 11:27:46;;;;;;;1.30;1.00;;;9.80;86.40;;;;;;5052670;28;20109;-71
2023/12/07 11:30:14;;;;;;;1.70;1.00;;;9.90;85.90;;;;;;5052934;28;20123;-71
2023/12/07 11:32:40;;;;;;;5.13;1.27;;;9.90;83.80;;;;;;5053029;28;20400;-72
2023/12/07 11:35:12;;;;;;;3.88;1.20;;;9.90;83.40;;;;;;5052122;28;20112;-72
2023/12/07 11:38:01;;;;;;;3.13;1.40;;;10.00;82.30;;;;;;5053016;28;20029;-71
2023/12/07 11:40:29;;;;;;;6.57;1.10;;;10.00;82.40;;;;;;5052884;28;20033;-69
2023/12/07 11:42:55;;;;;;;2.78;1.27;;;10.00;81.80;;;;;;5052485;28;20053;-72
2023/12/07 11:45:43;;;;;;;2.45;1.15;;;10.00;81.30;;;;;;5052553;28;20032;-71
2023/12/07 11:48:11;;;;;;;5.03;1.10;;;10.10;81.30;;;;;;5052764;28;20033;-70
2023/12/07 11:50:59;;;;;;;1.63;1.07;;;10.10;80.10;;;;;;5052575;28;20536;-70
2023/12/07 11:53:30;;;;;;;2.00;0.90;;;10.10;77.00;;;;;;5052465;28;20033;-71
2023/12/07 11:56:00;;;;;;;4.50;1.00;;;10.10;75.10;;;;;;5052507;28;20037;-72
2023/12/07 11:58:30;;;;;;;3.43;0.90;;;10.10;76.00;;;;;;5052753;28;20028;-72
2023/12/07 12:00:56;;;;;;;1.20;0.80;;;10.10;77.10;;;;;;5052507;28;20037;-69
2023/12/07 12:03:28;;;;;;;1.50;0.77;;;10.20;77.20;;;;;;5052467;28;20236;-71
2023/12/07 12:05:56;;;;;;;3.47;1.00;;;10.20;76.70;;;;;;5052745;28;20094;-63
2023/12/07 12:08:23;;;;;;;1.77;0.98;;;10.30;76.20;;;;;;5052513;28;20091;-64
2023/12/07 12:10:52;;;;;;;2.35;1.02;;;10.30;75.30;;;;;;5052430;28;20040;-63
2023/12/07 12:13:18;;;;;;;1.50;1.05;;;10.30;75.10;;;;;;5052401;28;20523;-62
2023/12/07 12:15:49;;;;;;;1.77;1.20;;;10.40;75.30;;;;;;5052228;28;20068;-65
2023/12/07 12:18:17;;;;;;;4.63;1.00;;;10.40;75.60;;;;;;5052213;28;20033;-64
2023/12/07 12:20:45;;;;;;;2.97;1.25;;;10.40;76.40;;;;;;5052047;28;20039;-67
2023/12/07 12:23:13;;;;;;;1.45;0.90;;;10.40;77.40;;;;;;5051994;28;20037;-64
2023/12/07 12:25:40;;;;;;;1.65;1.15;;;10.40;77.80;;;;;;5051885;28;20033;-64
2023/12/07 12:28:09;;;;;;;3.20;1.30;;;10.40;76.60;;;;;;5051995;28;20051;-63
2023/12/07 12:30:35;;;;;;;6.28;1.50;;;10.40;77.30;;;;;;5052112;28;20030;-65
2023/12/07 12:33:02;;;;;;;4.45;1.20;;;10.40;77.20;;;;;;5052064;28;20037;-65
2023/12/07 12:35:30;;;;;;;3.33;1.35;;;10.40;77.60;;;;;;5054899;28;20033;-64
2023/12/07 12:37:58;;;;;;;2.03;1.00;;;10.50;78.40;;;;;;5055700;28;20432;-63
2023/12/07 12:40:26;;;;;;;4.53;1.38;;;10.40;77.60;;;;;;5055770;28;20453;-65
2023/12/07 12:42:53;;;;;;;5.00;1.67;;;10.50;77.20;;;;;;5055774;28;20053;-63
2023/12/07 12:45:20;;;;;;;2.65;1.30;;;10.50;77.50;;;;;;5055805;28;20112;-64
2023/12/07 12:47:48;;;;;;;3.03;1.30;;;10.40;75.70;;;;;;5055995;28;20481;-63
2023/12/07 12:50:34;;;;;;;4.82;1.63;;;10.40;76.00;;;;;;5055842;28;20075;-66
2023/12/07 12:53:03;;;;;;;3.22;1.50;;;10.40;76.10;;;;;;5055540;28;20033;-67
2023/12/07 12:55:39;;;;;;;4.13;1.13;;;10.40;76.50;;;;;;5055567;28;20037;-67
2023/12/07 12:58:11;;;;;;;2.95;1.30;;;10.40;77.10;;;;;;5055872;28;20045;-63
2023/12/07 13:00:44;;;;;;;2.85;1.50;;;10.40;77.10;;;;;;5055555;28;20381;-64
2023/12/07 13:03:13;;;;;;;2.93;1.57;;;10.40;77.00;;;;;;5055399;28;20084;-65
2023/12/07 13:05:40;;;;;;;2.03;1.27;;;10.40;77.20;;;;;;5055493;28;20059;-63